Hauptseite
METAR-TAF:

METAR-TAF

Flughäfen :

Militärflugplatz Rivolto

Udine, Italien

Breite: 45-59N, Länge: 013-02E, Höhe: 51 m

Beobachtung

Neuester Wetterbericht von vor 6 Stunden und 55 Minuten, um 13:55 UTC
Temperatur 24°C
Luftfeuchtigkeit 50%
Luftdruck 1015 hPa
Sichtweite 10 km oder mehr
Leicht bewölkt in der Höhe von 10000 ft

METAR: LIPI 181355Z /////KT 9999 FEW100 24/13 Q1015 RMK SCT SCT180 VIS MIN 9999 WIND THR06 17005KT WIND THR24 16002KT BLU

Zeit: 22:50 (20:50 UTC)

Prognose

Neuester Wetterbericht von vor 9 Stunden und 50 Minuten, um 11:00 UTC
Gültige Prognose vom 18 um 12 UTC bis 18 um 21 UTC
Wind 5 kt aus Ost
Sichtweite 10 km oder mehr
Aufgelockert bewölkt in der Höhe von 8000 ft

TAF: LIPI 181100Z 1812/1821 08005KT 9999 SCT080

Wetterbeobachtungen und Prognosen von mehr als 4000 Flughäfen (METAR und TAF Bericht).

Die verfügbaren Stationen werden durch gelbe und rote Markierungen auf der Karte dargestellt.

Führen Sie die Maus auf sie, um den Namen der Station zu sehen.

Darauf klicken, um die Beobachtung von Wetterbeobachtungen und Prognosen zu sehen.

Um die Karte zu ändern : klicken Sie auf den grünen Tasten mit einem schwarzen Kreuz Zum Vergrößern, auf den grünen Button mit einem Gedankenstrich zu verkleinern, oder auf die grünen Pfeile für benachbarte Karten.


METAR-TAF: